createdAt,value
2018-07-06T00:01:20.067Z,6.47
2018-07-06T00:04:06.497Z,5.57
2018-07-06T00:06:52.882Z,6.20
2018-07-06T00:09:39.172Z,8.50
2018-07-06T00:12:25.612Z,6.70
2018-07-06T00:15:12.038Z,5.47
2018-07-06T00:17:58.437Z,6.33
2018-07-06T00:20:44.808Z,10.10
2018-07-06T00:23:31.254Z,6.97
2018-07-06T00:26:17.646Z,6.90
2018-07-06T00:29:04.084Z,6.53
2018-07-06T00:31:50.368Z,14.70
2018-07-06T00:34:36.757Z,6.23
2018-07-06T00:37:23.023Z,8.40
2018-07-06T00:40:09.448Z,8.43
2018-07-06T00:42:55.890Z,15.00
2018-07-06T00:45:42.114Z,7.93
2018-07-06T00:48:28.466Z,8.87
2018-07-06T00:51:15.004Z,13.07
2018-07-06T00:54:01.341Z,7.30
2018-07-06T00:56:47.614Z,6.03
2018-07-06T00:59:34.045Z,6.30
2018-07-06T01:02:20.316Z,10.50
2018-07-06T01:05:06.781Z,7.40
2018-07-06T01:07:53.031Z,11.07
2018-07-06T01:10:40.434Z,6.73
2018-07-06T01:13:26.994Z,7.20
2018-07-06T01:16:13.397Z,7.17
2018-07-06T01:18:59.782Z,9.50
2018-07-06T01:21:46.168Z,7.00
2018-07-06T01:24:32.598Z,7.37
2018-07-06T01:27:18.979Z,7.57
2018-07-06T01:30:05.452Z,7.10
2018-07-06T01:32:51.653Z,8.37
2018-07-06T01:35:37.802Z,7.77
2018-07-06T01:38:24.211Z,7.97
2018-07-06T01:41:11.645Z,9.00
2018-07-06T01:43:57.883Z,9.50
2018-07-06T01:46:44.142Z,8.63
2018-07-06T01:49:30.582Z,11.60
2018-07-06T01:52:16.963Z,8.10
2018-07-06T01:55:03.239Z,7.80
2018-07-06T01:57:49.735Z,9.73
2018-07-06T02:00:36.077Z,11.67
2018-07-06T02:03:22.547Z,11.53
2018-07-06T02:06:08.862Z,11.80
2018-07-06T02:08:55.392Z,10.50
2018-07-06T02:11:41.705Z,11.80
2018-07-06T02:14:28.978Z,12.00
2018-07-06T02:17:15.570Z,13.97
2018-07-06T02:20:01.939Z,13.30
2018-07-06T02:22:48.377Z,14.93
2018-07-06T02:25:34.688Z,15.07
2018-07-06T02:28:20.973Z,19.87
2018-07-06T02:31:08.266Z,17.70
2018-07-06T02:33:54.734Z,25.17
2018-07-06T02:36:40.976Z,28.60
2018-07-06T02:39:27.265Z,26.40
2018-07-06T02:42:13.690Z,23.30
2018-07-06T02:45:00.119Z,25.07
2018-07-06T02:47:46.511Z,25.33
2018-07-06T02:50:32.935Z,26.23
2018-07-06T02:53:19.191Z,29.33
2018-07-06T02:56:05.587Z,31.80
2018-07-06T02:58:52.038Z,33.20
2018-07-06T03:01:38.414Z,33.53
2018-07-06T03:04:24.633Z,39.30
2018-07-06T03:07:11.002Z,33.47
2018-07-06T03:09:57.317Z,44.67
2018-07-06T03:12:43.717Z,46.27
2018-07-06T03:15:29.902Z,41.00
2018-07-06T03:18:16.302Z,39.23
2018-07-06T03:21:02.617Z,39.83
2018-07-06T03:23:48.965Z,41.40
2018-07-06T03:26:35.321Z,41.10
2018-07-06T03:29:21.639Z,37.00
2018-07-06T03:32:08.049Z,43.40
2018-07-06T03:34:54.499Z,46.33
2018-07-06T03:37:40.945Z,51.60
2018-07-06T03:40:27.312Z,41.77
2018-07-06T03:43:13.682Z,44.13
2018-07-06T03:46:00.015Z,39.27
2018-07-06T03:48:46.319Z,34.40
2018-07-06T03:51:32.771Z,39.77
2018-07-06T03:54:19.190Z,38.43
2018-07-06T03:57:05.567Z,36.40
2018-07-06T03:59:51.946Z,29.47
2018-07-06T04:02:38.353Z,32.07
2018-07-06T04:05:24.851Z,33.30
2018-07-06T04:08:11.282Z,29.70
2018-07-06T04:10:57.655Z,31.47
2018-07-06T04:13:44.071Z,27.13
2018-07-06T04:16:30.503Z,29.10
2018-07-06T04:19:16.823Z,29.73
2018-07-06T04:22:03.179Z,31.63
2018-07-06T04:24:49.615Z,30.23
2018-07-06T04:27:36.033Z,40.17
2018-07-06T04:30:22.395Z,40.67
2018-07-06T04:33:08.849Z,40.77
2018-07-06T04:35:55.163Z,44.37
2018-07-06T04:38:41.517Z,40.93
2018-07-06T04:41:27.905Z,42.37
2018-07-06T04:44:14.384Z,36.60
2018-07-06T04:47:00.656Z,38.00
2018-07-06T04:49:47.046Z,38.10
2018-07-06T04:52:33.494Z,36.20
2018-07-06T04:55:19.898Z,38.00
2018-07-06T04:58:06.185Z,34.30
2018-07-06T05:00:52.495Z,29.00
2018-07-06T05:03:38.910Z,35.00
2018-07-06T05:06:25.165Z,29.73
2018-07-06T05:09:11.566Z,31.93
2018-07-06T05:11:57.839Z,29.67
2018-07-06T05:14:44.211Z,30.80
2018-07-06T05:17:30.686Z,27.90
2018-07-06T05:20:17.028Z,27.77
2018-07-06T05:23:03.461Z,25.73
2018-07-06T05:25:49.794Z,25.33
2018-07-06T05:28:36.198Z,25.13
2018-07-06T05:31:22.582Z,23.10
2018-07-06T05:34:08.965Z,24.27
2018-07-06T05:36:55.485Z,26.10
2018-07-06T05:39:41.766Z,24.83
2018-07-06T05:42:28.011Z,27.50
2018-07-06T05:45:14.625Z,25.10
2018-07-06T05:48:01.081Z,25.17
2018-07-06T05:50:47.383Z,21.57
2018-07-06T05:53:33.798Z,26.80
2018-07-06T05:56:20.237Z,27.17
2018-07-06T05:59:06.590Z,24.17
2018-07-06T06:01:52.953Z,24.17
2018-07-06T06:04:39.359Z,24.00
2018-07-06T06:07:20.039Z,24.80
2018-07-06T06:09:49.047Z,30.63
2018-07-06T06:12:19.679Z,29.57
2018-07-06T06:14:49.230Z,24.70
2018-07-06T06:17:18.679Z,31.30
2018-07-06T06:19:48.027Z,30.23
2018-07-06T06:22:17.483Z,31.47
2018-07-06T06:24:46.829Z,34.30
2018-07-06T06:27:16.281Z,34.40
2018-07-06T06:29:45.563Z,38.03
2018-07-06T06:32:14.901Z,34.63
2018-07-06T06:34:44.246Z,35.00
2018-07-06T06:37:13.936Z,32.20
2018-07-06T06:39:43.228Z,30.87
2018-07-06T06:42:13.649Z,31.00
2018-07-06T06:44:42.971Z,33.90
2018-07-06T06:47:12.271Z,31.73
2018-07-06T06:49:41.663Z,32.07
2018-07-06T06:52:10.932Z,32.70
2018-07-06T06:54:40.221Z,32.40
2018-07-06T06:57:09.538Z,32.33
2018-07-06T06:59:38.847Z,28.97
2018-07-06T07:02:08.302Z,27.60
2018-07-06T07:04:37.704Z,29.73
2018-07-06T07:07:07.149Z,29.93
2018-07-06T07:09:36.379Z,24.53
2018-07-06T07:12:05.659Z,22.77
2018-07-06T07:14:34.999Z,26.63
2018-07-06T07:17:04.297Z,21.00
2018-07-06T07:19:33.582Z,25.33
2018-07-06T07:22:02.848Z,23.13
2018-07-06T07:24:32.179Z,21.30
2018-07-06T07:27:02.048Z,25.87
2018-07-06T07:29:31.389Z,22.23
2018-07-06T07:32:00.738Z,20.93
2018-07-06T07:34:30.054Z,19.50
2018-07-06T07:36:59.429Z,19.40
2018-07-06T07:39:28.712Z,17.67
2018-07-06T07:41:57.995Z,17.50
2018-07-06T07:44:27.297Z,15.63
2018-07-06T07:46:56.995Z,14.73
2018-07-06T07:49:26.243Z,14.90
2018-07-06T07:52:12.577Z,11.50
2018-07-06T07:54:45.546Z,14.57
2018-07-06T07:57:15.156Z,11.03
2018-07-06T07:59:44.858Z,10.87
2018-07-06T08:02:14.304Z,10.30
2018-07-06T08:04:43.712Z,12.00
2018-07-06T08:07:13.046Z,13.00
2018-07-06T08:09:42.305Z,13.50
2018-07-06T08:12:11.720Z,16.30
2018-07-06T08:14:41.082Z,12.77
2018-07-06T08:17:10.422Z,15.03
2018-07-06T08:19:39.803Z,9.60
2018-07-06T08:22:09.073Z,7.63
2018-07-06T08:24:38.348Z,11.77
2018-07-06T08:27:07.646Z,7.60
2018-07-06T08:29:37.038Z,7.33
2018-07-06T08:32:06.390Z,7.43
2018-07-06T08:34:46.797Z,7.23
2018-07-06T08:37:31.489Z,8.27
2018-07-06T08:40:00.911Z,9.67
2018-07-06T08:42:31.330Z,10.00
2018-07-06T08:45:01.059Z,8.83
2018-07-06T08:47:30.420Z,8.60
2018-07-06T08:50:00.366Z,13.77
2018-07-06T08:52:29.801Z,11.67
2018-07-06T08:54:59.137Z,11.07
2018-07-06T08:57:29.683Z,12.17
2018-07-06T08:59:58.897Z,11.67
2018-07-06T09:02:28.416Z,12.20
2018-07-06T09:04:58.415Z,10.93
2018-07-06T09:07:27.660Z,14.33
2018-07-06T09:09:57.805Z,12.00
2018-07-06T09:12:27.085Z,13.37
2018-07-06T09:14:56.894Z,15.70
2018-07-06T09:17:26.208Z,14.87
2018-07-06T09:19:56.630Z,14.50
2018-07-06T09:22:25.831Z,13.00
2018-07-06T09:24:57.540Z,14.90
2018-07-06T09:27:26.806Z,12.87
2018-07-06T09:29:56.306Z,15.30
2018-07-06T09:32:25.782Z,14.40
2018-07-06T09:34:55.024Z,13.43
2018-07-06T09:37:24.245Z,16.93
2018-07-06T09:39:53.814Z,17.50
2018-07-06T09:42:23.469Z,15.67
2018-07-06T09:44:52.438Z,18.90
2018-07-06T09:47:21.646Z,27.53
2018-07-06T09:49:51.058Z,26.00
2018-07-06T09:52:20.402Z,25.93
2018-07-06T09:54:49.722Z,27.17
2018-07-06T09:57:18.981Z,23.83
2018-07-06T09:59:48.239Z,23.70
2018-07-06T10:02:17.509Z,21.23
2018-07-06T10:04:46.775Z,22.10
2018-07-06T10:07:16.053Z,18.90
2018-07-06T10:09:45.303Z,21.67
2018-07-06T10:12:14.729Z,17.83
2018-07-06T10:14:44.185Z,17.60
2018-07-06T10:17:13.786Z,18.10
2018-07-06T10:19:43.252Z,21.93
2018-07-06T10:22:12.779Z,21.40
2018-07-06T10:24:42.906Z,21.03
2018-07-06T10:27:12.585Z,18.30
2018-07-06T10:29:49.267Z,17.50
2018-07-06T10:32:20.320Z,19.67
2018-07-06T10:34:49.821Z,21.40
2018-07-06T10:37:19.541Z,90.27
2018-07-06T10:39:49.382Z,30.20
2018-07-06T10:42:18.869Z,23.13
2018-07-06T10:44:48.205Z,17.27
2018-07-06T10:47:17.526Z,12.60
2018-07-06T10:49:47.074Z,17.77
2018-07-06T10:52:16.995Z,20.50
2018-07-06T10:54:46.776Z,11.73
2018-07-06T10:57:16.269Z,11.40
2018-07-06T10:59:45.523Z,12.63
2018-07-06T11:02:15.032Z,13.03
2018-07-06T11:04:44.597Z,14.30
2018-07-06T11:07:14.039Z,9.67
2018-07-06T11:09:43.526Z,10.27
2018-07-06T11:12:12.869Z,10.03
2018-07-06T11:14:42.260Z,19.50
2018-07-06T11:17:11.590Z,10.10
2018-07-06T11:19:40.872Z,13.40
2018-07-06T11:22:10.277Z,11.70
2018-07-06T11:24:39.650Z,11.93
2018-07-06T11:27:09.246Z,10.70
2018-07-06T11:29:38.549Z,12.60
2018-07-06T11:32:12.442Z,11.53
2018-07-06T11:34:43.144Z,10.63
2018-07-06T11:37:12.762Z,13.03
2018-07-06T11:39:42.389Z,11.53
2018-07-06T11:42:15.181Z,10.90
2018-07-06T11:44:44.678Z,15.87
2018-07-06T11:47:15.137Z,13.20
2018-07-06T11:49:45.182Z,10.50
2018-07-06T11:52:14.838Z,13.63
2018-07-06T11:54:48.834Z,12.90
2018-07-06T11:57:20.452Z,12.60
2018-07-06T11:59:50.585Z,13.60
2018-07-06T12:02:21.254Z,13.10
2018-07-06T12:04:50.701Z,13.13
2018-07-06T12:07:20.785Z,13.43
2018-07-06T12:09:50.129Z,17.10
2018-07-06T12:12:19.645Z,12.20
2018-07-06T12:14:48.995Z,14.50
2018-07-06T12:17:18.277Z,12.60
2018-07-06T12:19:49.745Z,17.90
2018-07-06T12:22:19.082Z,11.60
2018-07-06T12:24:49.953Z,12.67
2018-07-06T12:27:20.005Z,11.03
2018-07-06T12:29:53.409Z,11.10
2018-07-06T12:32:22.791Z,11.07
2018-07-06T12:34:52.164Z,10.20
2018-07-06T12:37:21.499Z,10.30
2018-07-06T12:39:50.885Z,9.43
2018-07-06T12:42:24.823Z,12.90
2018-07-06T12:44:54.119Z,12.27
2018-07-06T12:47:23.570Z,19.13
2018-07-06T12:49:57.006Z,12.40
2018-07-06T12:52:26.420Z,10.50
2018-07-06T12:55:01.939Z,10.70
2018-07-06T12:57:34.835Z,10.87
2018-07-06T13:00:06.081Z,9.90
2018-07-06T13:02:35.772Z,16.73
2018-07-06T13:05:09.398Z,9.53
2018-07-06T13:07:39.295Z,10.53
2018-07-06T13:10:08.636Z,11.17
2018-07-06T13:12:42.502Z,13.70
2018-07-06T13:15:11.852Z,13.30
2018-07-06T13:17:41.164Z,9.57
2018-07-06T13:20:10.575Z,10.47
2018-07-06T13:22:45.071Z,10.73
2018-07-06T13:25:20.049Z,13.67
2018-07-06T13:27:51.737Z,14.00
2018-07-06T13:30:22.494Z,9.10
2018-07-06T13:33:00.111Z,15.03
2018-07-06T13:35:29.923Z,12.90
2018-07-06T13:38:00.095Z,8.23
2018-07-06T13:40:38.373Z,9.50
2018-07-06T13:43:13.103Z,15.43
2018-07-06T13:45:42.724Z,8.07
2018-07-06T13:48:12.192Z,8.13
2018-07-06T13:50:41.949Z,7.73
2018-07-06T13:53:11.196Z,8.63
2018-07-06T13:55:40.445Z,8.53
2018-07-06T13:58:09.976Z,11.00
2018-07-06T14:00:39.265Z,8.07
2018-07-06T14:03:08.613Z,11.63
2018-07-06T14:05:38.071Z,9.37
2018-07-06T14:08:07.313Z,7.20
2018-07-06T14:10:36.672Z,6.47
2018-07-06T14:13:06.241Z,11.43
2018-07-06T14:15:35.610Z,5.90
2018-07-06T14:18:04.901Z,5.93
2018-07-06T14:20:34.149Z,5.50
2018-07-06T14:23:03.427Z,7.10
2018-07-06T14:25:32.820Z,5.60
2018-07-06T14:28:02.148Z,5.20
2018-07-06T14:30:31.789Z,5.30
2018-07-06T14:33:01.131Z,6.00
2018-07-06T14:35:30.468Z,8.00
2018-07-06T14:37:59.910Z,5.10
2018-07-06T14:40:29.305Z,4.33
2018-07-06T14:42:58.651Z,6.57
2018-07-06T14:45:27.969Z,6.23
2018-07-06T14:47:57.279Z,5.80
2018-07-06T14:50:26.686Z,4.53
2018-07-06T14:52:55.993Z,3.70
2018-07-06T14:55:25.479Z,4.77
2018-07-06T14:57:54.779Z,3.70
2018-07-06T15:00:24.198Z,5.20
2018-07-06T15:02:53.453Z,4.50
2018-07-06T15:05:22.831Z,5.67
2018-07-06T15:07:52.168Z,3.87
2018-07-06T15:10:21.601Z,3.30
2018-07-06T15:12:51.078Z,4.20
2018-07-06T15:15:20.510Z,3.80
2018-07-06T15:17:49.948Z,3.67
2018-07-06T15:20:19.263Z,3.60
2018-07-06T15:22:48.858Z,3.97
2018-07-06T15:25:18.151Z,5.00
2018-07-06T15:27:47.504Z,3.80
2018-07-06T15:30:17.098Z,5.87
2018-07-06T15:32:46.407Z,18.63
2018-07-06T15:35:18.571Z,7.30
2018-07-06T15:37:50.966Z,4.10
2018-07-06T15:40:20.248Z,5.57
2018-07-06T15:42:49.621Z,5.43
2018-07-06T15:45:18.881Z,3.93
2018-07-06T15:47:48.253Z,4.93
2018-07-06T15:50:17.658Z,7.87
2018-07-06T15:52:46.996Z,4.40
2018-07-06T15:55:16.285Z,6.43
2018-07-06T15:57:45.803Z,7.00
2018-07-06T16:00:15.041Z,9.27
2018-07-06T16:02:44.567Z,6.87
2018-07-06T16:05:13.830Z,9.90
2018-07-06T16:07:43.182Z,7.00
2018-07-06T16:10:12.438Z,4.67
2018-07-06T16:12:41.994Z,5.57
2018-07-06T16:15:11.307Z,4.17
2018-07-06T16:17:40.716Z,4.37
2018-07-06T16:20:10.150Z,11.43
2018-07-06T16:22:39.526Z,9.87
2018-07-06T16:25:08.777Z,6.80
2018-07-06T16:27:38.427Z,7.90
2018-07-06T16:30:07.718Z,8.77
2018-07-06T16:32:37.326Z,6.17
2018-07-06T16:35:07.173Z,8.50
2018-07-06T16:37:36.873Z,6.60
2018-07-06T16:40:06.240Z,7.10
2018-07-06T16:42:35.813Z,9.43
2018-07-06T16:45:05.097Z,4.17
2018-07-06T16:47:34.485Z,13.40
2018-07-06T16:50:03.995Z,5.23
2018-07-06T16:52:33.529Z,5.93
2018-07-06T16:55:02.900Z,7.73
2018-07-06T16:57:32.332Z,4.30
2018-07-06T17:00:01.824Z,7.00
2018-07-06T17:02:31.212Z,3.83
2018-07-06T17:05:00.849Z,5.77
2018-07-06T17:07:30.255Z,5.27
2018-07-06T17:09:59.821Z,5.50
2018-07-06T17:12:29.765Z,6.90
2018-07-06T17:14:59.052Z,5.60
2018-07-06T17:17:28.688Z,4.50
2018-07-06T17:19:58.295Z,6.77
2018-07-06T17:22:27.840Z,5.80
2018-07-06T17:24:57.098Z,7.43
2018-07-06T17:27:26.324Z,7.83
2018-07-06T17:29:55.710Z,6.30
2018-07-06T17:32:25.196Z,10.80
2018-07-06T17:34:54.609Z,5.57
2018-07-06T17:37:23.939Z,7.50
2018-07-06T17:39:53.189Z,7.57
2018-07-06T17:42:22.456Z,4.80
2018-07-06T17:44:51.769Z,5.40
2018-07-06T17:47:21.056Z,5.20
2018-07-06T17:49:50.331Z,6.33
2018-07-06T17:52:19.790Z,7.60
2018-07-06T17:54:49.106Z,4.90
2018-07-06T17:57:18.394Z,7.30
2018-07-06T17:59:47.795Z,5.07
2018-07-06T18:02:17.154Z,6.50
2018-07-06T18:04:46.407Z,9.43
2018-07-06T18:07:15.777Z,5.63
2018-07-06T18:09:45.038Z,6.10
2018-07-06T18:12:14.385Z,5.63
2018-07-06T18:14:43.809Z,5.63
2018-07-06T18:17:14.120Z,8.00
2018-07-06T18:19:43.615Z,4.73
2018-07-06T18:22:13.497Z,8.80
2018-07-06T18:24:42.972Z,6.70
2018-07-06T18:27:13.517Z,4.70
2018-07-06T18:29:42.866Z,4.97
2018-07-06T18:32:12.241Z,9.90
2018-07-06T18:34:41.615Z,10.20
2018-07-06T18:37:10.986Z,7.47
2018-07-06T18:39:40.245Z,4.10
2018-07-06T18:42:09.726Z,4.57
2018-07-06T18:44:38.993Z,5.10
2018-07-06T18:47:08.489Z,5.93
2018-07-06T18:49:37.762Z,6.83
2018-07-06T18:52:07.220Z,11.60
2018-07-06T18:54:36.508Z,13.03
2018-07-06T18:57:05.755Z,6.50
2018-07-06T18:59:35.170Z,4.20
2018-07-06T19:02:04.418Z,6.33
2018-07-06T19:04:33.949Z,5.30
2018-07-06T19:07:03.482Z,7.73
2018-07-06T19:09:32.780Z,7.50
2018-07-06T19:12:02.271Z,7.23
2018-07-06T19:14:31.519Z,5.97
2018-07-06T19:17:00.801Z,3.97
2018-07-06T19:19:30.114Z,9.67
2018-07-06T19:21:59.521Z,4.63
2018-07-06T19:24:28.754Z,9.00
2018-07-06T19:26:58.216Z,4.90
2018-07-06T19:29:27.442Z,3.60
2018-07-06T19:31:56.877Z,5.10
2018-07-06T19:34:26.087Z,8.10
2018-07-06T19:36:55.660Z,5.90
2018-07-06T19:39:25.047Z,5.10
2018-07-06T19:41:54.440Z,10.40
2018-07-06T19:44:23.702Z,6.13
2018-07-06T19:46:52.998Z,4.00
2018-07-06T19:49:22.399Z,7.93
2018-07-06T19:51:51.701Z,9.67
2018-07-06T19:54:21.084Z,5.57
2018-07-06T19:56:50.336Z,13.47
2018-07-06T19:59:19.675Z,4.47
2018-07-06T20:01:48.954Z,8.00
2018-07-06T20:04:18.275Z,6.73
2018-07-06T20:06:47.585Z,10.03
2018-07-06T20:09:16.844Z,12.43
2018-07-06T20:11:46.075Z,11.57
2018-07-06T20:14:15.382Z,9.23
2018-07-06T20:16:44.833Z,4.87
2018-07-06T20:19:14.196Z,6.33
2018-07-06T20:21:43.569Z,12.90
2018-07-06T20:24:12.984Z,7.30
2018-07-06T20:26:42.371Z,7.50
2018-07-06T20:29:11.601Z,7.10
2018-07-06T20:31:40.937Z,7.10
2018-07-06T20:34:10.396Z,8.43
2018-07-06T20:36:39.761Z,14.27
2018-07-06T20:39:09.113Z,6.73
2018-07-06T20:41:38.350Z,9.03
2018-07-06T20:44:07.859Z,6.40
2018-07-06T20:46:37.125Z,11.20
2018-07-06T20:49:06.395Z,5.37
2018-07-06T20:51:35.709Z,16.20
2018-07-06T20:54:04.991Z,9.20
2018-07-06T20:56:34.249Z,8.40
2018-07-06T20:59:03.604Z,7.20
2018-07-06T21:01:32.872Z,6.30
2018-07-06T21:04:02.198Z,8.93
2018-07-06T21:06:31.557Z,17.30
2018-07-06T21:09:00.949Z,9.73
2018-07-06T21:11:30.217Z,6.63
2018-07-06T21:13:59.610Z,10.50
2018-07-06T21:16:29.049Z,10.30
2018-07-06T21:18:58.360Z,5.97
2018-07-06T21:21:27.681Z,5.83
2018-07-06T21:23:57.014Z,7.20
2018-07-06T21:26:26.377Z,7.27
2018-07-06T21:28:55.731Z,14.00
2018-07-06T21:31:25.088Z,5.23
2018-07-06T21:33:54.651Z,8.33
2018-07-06T21:36:24.018Z,5.83
2018-07-06T21:38:53.434Z,5.27
2018-07-06T21:41:22.688Z,9.87
2018-07-06T21:43:52.070Z,11.13
2018-07-06T21:46:21.461Z,6.50
2018-07-06T21:48:51.008Z,10.33
2018-07-06T21:51:20.578Z,7.30
2018-07-06T21:53:49.844Z,10.73
2018-07-06T21:56:19.337Z,10.30
2018-07-06T21:58:48.931Z,6.57
2018-07-06T22:01:18.234Z,7.30
2018-07-06T22:03:47.574Z,5.43
2018-07-06T22:06:16.958Z,8.23
2018-07-06T22:08:46.445Z,10.93
2018-07-06T22:11:15.862Z,8.87
2018-07-06T22:13:45.322Z,10.77
2018-07-06T22:16:14.616Z,5.60
2018-07-06T22:18:44.010Z,10.03
2018-07-06T22:21:13.322Z,7.13
2018-07-06T22:23:42.762Z,5.40
2018-07-06T22:26:12.019Z,4.57
2018-07-06T22:28:41.449Z,5.97
2018-07-06T22:31:10.837Z,5.67
2018-07-06T22:33:40.160Z,6.60
2018-07-06T22:36:09.412Z,6.60
2018-07-06T22:38:38.890Z,8.50
2018-07-06T22:41:08.226Z,10.73
2018-07-06T22:43:37.823Z,3.17
2018-07-06T22:46:07.180Z,7.63
2018-07-06T22:48:36.637Z,11.10
2018-07-06T22:51:05.931Z,4.30
2018-07-06T22:53:35.463Z,10.00
2018-07-06T22:56:04.755Z,8.53
2018-07-06T22:58:34.179Z,5.30
2018-07-06T23:01:03.441Z,7.03
2018-07-06T23:03:32.851Z,7.50
2018-07-06T23:06:02.429Z,6.20
2018-07-06T23:08:31.870Z,9.13
2018-07-06T23:11:01.224Z,15.40
2018-07-06T23:13:30.692Z,8.20
2018-07-06T23:15:59.931Z,4.10
2018-07-06T23:18:29.238Z,4.30
2018-07-06T23:20:58.740Z,6.93
2018-07-06T23:23:28.037Z,6.30
2018-07-06T23:25:57.286Z,12.63
2018-07-06T23:28:26.597Z,6.83
2018-07-06T23:30:55.895Z,5.07
2018-07-06T23:33:25.237Z,3.03
2018-07-06T23:35:54.539Z,9.53
2018-07-06T23:38:23.875Z,7.93
2018-07-06T23:40:53.213Z,4.20
2018-07-06T23:43:22.607Z,7.17
2018-07-06T23:45:51.891Z,3.83
2018-07-06T23:48:21.147Z,10.43
2018-07-06T23:50:50.479Z,7.30
2018-07-06T23:53:19.763Z,6.50
2018-07-06T23:55:49.134Z,7.00
2018-07-06T23:58:18.392Z,5.77
